sensor_id;sensor_type;location;lat;lon;timestamp;P1;durP1;ratioP1;P2;durP2;ratioP2
54460;SDS011;40371;49.414;11.010;2023-02-01T00:01:54;4.83;;;4.40;;
54460;SDS011;40371;49.414;11.010;2023-02-01T00:04:21;5.87;;;4.27;;
54460;SDS011;40371;49.414;11.010;2023-02-01T00:06:46;4.30;;;3.90;;
54460;SDS011;40371;49.414;11.010;2023-02-01T00:09:12;5.07;;;4.20;;
54460;SDS011;40371;49.414;11.010;2023-02-01T00:11:38;4.87;;;4.10;;
54460;SDS011;40371;49.414;11.010;2023-02-01T00:14:04;5.33;;;3.97;;
54460;SDS011;40371;49.414;11.010;2023-02-01T00:16:30;5.57;;;3.90;;
54460;SDS011;40371;49.414;11.010;2023-02-01T00:18:58;3.97;;;3.67;;
54460;SDS011;40371;49.414;11.010;2023-02-01T00:21:25;4.80;;;4.40;;
54460;SDS011;40371;49.414;11.010;2023-02-01T00:23:52;5.63;;;4.40;;
54460;SDS011;40371;49.414;11.010;2023-02-01T00:26:39;4.50;;;4.10;;
54460;SDS011;40371;49.414;11.010;2023-02-01T00:29:07;4.53;;;4.13;;
54460;SDS011;40371;49.414;11.010;2023-02-01T00:31:36;4.27;;;3.87;;
54460;SDS011;40371;49.414;11.010;2023-02-01T00:34:02;7.13;;;4.43;;
54460;SDS011;40371;49.414;11.010;2023-02-01T00:36:28;5.33;;;4.20;;
54460;SDS011;40371;49.414;11.010;2023-02-01T00:38:54;5.07;;;4.53;;
54460;SDS011;40371;49.414;11.010;2023-02-01T00:41:20;6.13;;;3.97;;
54460;SDS011;40371;49.414;11.010;2023-02-01T00:43:48;3.87;;;3.57;;
54460;SDS011;40371;49.414;11.010;2023-02-01T00:46:15;4.50;;;3.67;;
54460;SDS011;40371;49.414;11.010;2023-02-01T00:48:41;5.03;;;4.17;;
54460;SDS011;40371;49.414;11.010;2023-02-01T00:51:09;4.77;;;3.90;;
54460;SDS011;40371;49.414;11.010;2023-02-01T00:53:36;4.57;;;4.17;;
54460;SDS011;40371;49.414;11.010;2023-02-01T00:56:02;4.47;;;4.07;;
54460;SDS011;40371;49.414;11.010;2023-02-01T00:58:28;4.43;;;4.00;;
54460;SDS011;40371;49.414;11.010;2023-02-01T01:01:01;4.83;;;4.33;;
54460;SDS011;40371;49.414;11.010;2023-02-01T01:03:30;4.27;;;3.87;;
54460;SDS011;40371;49.414;11.010;2023-02-01T01:05:58;4.30;;;3.83;;
54460;SDS011;40371;49.414;11.010;2023-02-01T01:08:26;3.93;;;3.60;;
54460;SDS011;40371;49.414;11.010;2023-02-01T01:10:52;4.70;;;4.23;;
54460;SDS011;40371;49.414;11.010;2023-02-01T01:13:18;4.53;;;4.10;;
54460;SDS011;40371;49.414;11.010;2023-02-01T01:15:44;4.70;;;4.30;;
54460;SDS011;40371;49.414;11.010;2023-02-01T01:18:09;8.03;;;4.33;;
54460;SDS011;40371;49.414;11.010;2023-02-01T01:20:35;4.70;;;4.30;;
54460;SDS011;40371;49.414;11.010;2023-02-01T01:23:03;4.93;;;4.53;;
54460;SDS011;40371;49.414;11.010;2023-02-01T01:25:29;5.40;;;4.50;;
54460;SDS011;40371;49.414;11.010;2023-02-01T01:27:55;5.57;;;4.83;;
54460;SDS011;40371;49.414;11.010;2023-02-01T01:30:21;5.00;;;4.60;;
54460;SDS011;40371;49.414;11.010;2023-02-01T01:32:46;5.00;;;4.30;;
54460;SDS011;40371;49.414;11.010;2023-02-01T01:35:12;5.50;;;4.90;;
54460;SDS011;40371;49.414;11.010;2023-02-01T01:37:38;6.53;;;4.47;;
54460;SDS011;40371;49.414;11.010;2023-02-01T01:40:04;5.27;;;4.13;;
54460;SDS011;40371;49.414;11.010;2023-02-01T01:42:36;4.50;;;4.10;;
54460;SDS011;40371;49.414;11.010;2023-02-01T01:48:07;3.90;;;3.60;;
54460;SDS011;40371;49.414;11.010;2023-02-01T01:50:59;4.37;;;3.97;;
54460;SDS011;40371;49.414;11.010;2023-02-01T01:53:33;3.73;;;3.40;;
54460;SDS011;40371;49.414;11.010;2023-02-01T01:56:10;4.27;;;3.87;;
54460;SDS011;40371;49.414;11.010;2023-02-01T01:58:37;4.70;;;4.30;;
54460;SDS011;40371;49.414;11.010;2023-02-01T02:01:03;3.83;;;3.47;;
54460;SDS011;40371;49.414;11.010;2023-02-01T02:03:33;3.83;;;3.53;;
54460;SDS011;40371;49.414;11.010;2023-02-01T02:06:05;5.27;;;3.90;;
54460;SDS011;40371;49.414;11.010;2023-02-01T02:08:38;4.07;;;3.73;;
54460;SDS011;40371;49.414;11.010;2023-02-01T02:11:07;3.53;;;3.20;;
54460;SDS011;40371;49.414;11.010;2023-02-01T02:13:35;3.80;;;3.50;;
54460;SDS011;40371;49.414;11.010;2023-02-01T02:18:43;3.40;;;3.10;;
54460;SDS011;40371;49.414;11.010;2023-02-01T02:21:17;3.23;;;2.93;;
54460;SDS011;40371;49.414;11.010;2023-02-01T02:26:53;3.80;;;3.50;;
54460;SDS011;40371;49.414;11.010;2023-02-01T02:29:29;5.90;;;3.80;;
54460;SDS011;40371;49.414;11.010;2023-02-01T02:34:48;4.00;;;3.70;;
54460;SDS011;40371;49.414;11.010;2023-02-01T02:42:39;4.60;;;3.93;;
54460;SDS011;40371;49.414;11.010;2023-02-01T02:45:47;4.60;;;4.13;;
54460;SDS011;40371;49.414;11.010;2023-02-01T02:48:36;4.47;;;3.97;;
54460;SDS011;40371;49.414;11.010;2023-02-01T02:51:18;5.10;;;4.60;;
54460;SDS011;40371;49.414;11.010;2023-02-01T02:54:10;6.63;;;4.40;;
54460;SDS011;40371;49.414;11.010;2023-02-01T02:56:58;5.13;;;4.13;;
54460;SDS011;40371;49.414;11.010;2023-02-01T02:59:45;4.80;;;4.30;;
54460;SDS011;40371;49.414;11.010;2023-02-01T03:02:32;5.23;;;4.57;;
54460;SDS011;40371;49.414;11.010;2023-02-01T03:05:17;4.87;;;4.30;;
54460;SDS011;40371;49.414;11.010;2023-02-01T03:12:52;5.17;;;4.77;;
54460;SDS011;40371;49.414;11.010;2023-02-01T03:15:26;4.50;;;4.20;;
54460;SDS011;40371;49.414;11.010;2023-02-01T03:18:04;5.57;;;4.93;;
54460;SDS011;40371;49.414;11.010;2023-02-01T03:20:42;5.63;;;5.00;;
54460;SDS011;40371;49.414;11.010;2023-02-01T03:23:10;5.80;;;4.73;;
54460;SDS011;40371;49.414;11.010;2023-02-01T03:25:41;5.50;;;5.00;;
54460;SDS011;40371;49.414;11.010;2023-02-01T03:28:07;5.47;;;4.97;;
54460;SDS011;40371;49.414;11.010;2023-02-01T03:30:42;7.73;;;4.90;;
54460;SDS011;40371;49.414;11.010;2023-02-01T03:33:17;6.33;;;5.57;;
54460;SDS011;40371;49.414;11.010;2023-02-01T03:39:04;5.40;;;4.83;;
54460;SDS011;40371;49.414;11.010;2023-02-01T03:41:58;5.73;;;5.13;;
54460;SDS011;40371;49.414;11.010;2023-02-01T03:44:34;5.87;;;5.27;;
54460;SDS011;40371;49.414;11.010;2023-02-01T03:47:43;6.23;;;5.00;;
54460;SDS011;40371;49.414;11.010;2023-02-01T03:50:06;6.37;;;5.43;;
54460;SDS011;40371;49.414;11.010;2023-02-01T03:52:40;5.50;;;4.97;;
54460;SDS011;40371;49.414;11.010;2023-02-01T03:55:14;6.70;;;4.93;;
54460;SDS011;40371;49.414;11.010;2023-02-01T03:57:46;7.17;;;5.20;;
54460;SDS011;40371;49.414;11.010;2023-02-01T04:00:19;5.83;;;5.33;;
54460;SDS011;40371;49.414;11.010;2023-02-01T04:02:49;6.93;;;5.17;;
54460;SDS011;40371;49.414;11.010;2023-02-01T04:05:16;6.07;;;5.37;;
54460;SDS011;40371;49.414;11.010;2023-02-01T04:07:50;5.67;;;5.17;;
54460;SDS011;40371;49.414;11.010;2023-02-01T04:10:15;5.40;;;4.77;;
54460;SDS011;40371;49.414;11.010;2023-02-01T04:12:41;7.63;;;5.03;;
54460;SDS011;40371;49.414;11.010;2023-02-01T04:15:07;6.10;;;5.27;;
54460;SDS011;40371;49.414;11.010;2023-02-01T04:17:33;6.60;;;5.60;;
54460;SDS011;40371;49.414;11.010;2023-02-01T04:19:59;5.40;;;4.83;;
54460;SDS011;40371;49.414;11.010;2023-02-01T04:22:24;5.37;;;4.87;;
54460;SDS011;40371;49.414;11.010;2023-02-01T04:24:50;6.03;;;4.93;;
54460;SDS011;40371;49.414;11.010;2023-02-01T04:27:15;6.80;;;5.03;;
54460;SDS011;40371;49.414;11.010;2023-02-01T04:29:41;5.23;;;4.73;;
54460;SDS011;40371;49.414;11.010;2023-02-01T04:32:07;5.70;;;5.10;;
54460;SDS011;40371;49.414;11.010;2023-02-01T04:34:32;10.50;;;5.27;;
54460;SDS011;40371;49.414;11.010;2023-02-01T04:36:58;4.57;;;4.17;;
54460;SDS011;40371;49.414;11.010;2023-02-01T04:39:24;4.47;;;4.00;;
54460;SDS011;40371;49.414;11.010;2023-02-01T04:41:49;4.97;;;4.50;;
54460;SDS011;40371;49.414;11.010;2023-02-01T04:44:16;4.67;;;4.27;;
54460;SDS011;40371;49.414;11.010;2023-02-01T04:46:42;4.97;;;4.37;;
54460;SDS011;40371;49.414;11.010;2023-02-01T04:49:09;6.53;;;5.30;;
54460;SDS011;40371;49.414;11.010;2023-02-01T04:51:35;7.97;;;5.00;;
54460;SDS011;40371;49.414;11.010;2023-02-01T04:54:01;5.13;;;4.63;;
54460;SDS011;40371;49.414;11.010;2023-02-01T04:56:27;5.43;;;4.87;;
54460;SDS011;40371;49.414;11.010;2023-02-01T04:58:53;6.20;;;4.53;;
54460;SDS011;40371;49.414;11.010;2023-02-01T05:01:18;4.80;;;4.40;;
54460;SDS011;40371;49.414;11.010;2023-02-01T05:03:44;4.87;;;4.17;;
54460;SDS011;40371;49.414;11.010;2023-02-01T05:06:10;5.17;;;4.67;;
54460;SDS011;40371;49.414;11.010;2023-02-01T05:08:35;4.70;;;4.30;;
54460;SDS011;40371;49.414;11.010;2023-02-01T05:11:01;5.00;;;4.60;;
54460;SDS011;40371;49.414;11.010;2023-02-01T05:13:28;5.23;;;4.63;;
54460;SDS011;40371;49.414;11.010;2023-02-01T05:16:12;6.23;;;5.03;;
54460;SDS011;40371;49.414;11.010;2023-02-01T05:18:38;5.60;;;5.10;;
54460;SDS011;40371;49.414;11.010;2023-02-01T05:21:04;5.13;;;4.63;;
54460;SDS011;40371;49.414;11.010;2023-02-01T05:23:30;6.60;;;5.17;;
54460;SDS011;40371;49.414;11.010;2023-02-01T05:25:59;5.93;;;5.17;;
54460;SDS011;40371;49.414;11.010;2023-02-01T05:28:25;6.47;;;5.07;;
54460;SDS011;40371;49.414;11.010;2023-02-01T05:30:52;5.33;;;4.83;;
54460;SDS011;40371;49.414;11.010;2023-02-01T05:33:17;5.40;;;4.90;;
54460;SDS011;40371;49.414;11.010;2023-02-01T05:35:43;5.30;;;4.80;;
54460;SDS011;40371;49.414;11.010;2023-02-01T05:38:08;7.73;;;5.50;;
54460;SDS011;40371;49.414;11.010;2023-02-01T05:40:34;6.20;;;5.23;;
54460;SDS011;40371;49.414;11.010;2023-02-01T05:43:00;6.63;;;5.50;;
54460;SDS011;40371;49.414;11.010;2023-02-01T05:45:25;8.60;;;6.57;;
54460;SDS011;40371;49.414;11.010;2023-02-01T05:47:51;6.70;;;5.83;;
54460;SDS011;40371;49.414;11.010;2023-02-01T05:50:16;6.13;;;5.53;;
54460;SDS011;40371;49.414;11.010;2023-02-01T05:52:42;6.23;;;5.63;;
54460;SDS011;40371;49.414;11.010;2023-02-01T05:55:08;6.17;;;4.93;;
54460;SDS011;40371;49.414;11.010;2023-02-01T05:57:34;5.80;;;5.30;;
54460;SDS011;40371;49.414;11.010;2023-02-01T06:00:00;7.60;;;5.43;;
54460;SDS011;40371;49.414;11.010;2023-02-01T06:02:25;5.43;;;4.93;;
54460;SDS011;40371;49.414;11.010;2023-02-01T06:04:51;4.93;;;4.60;;
54460;SDS011;40371;49.414;11.010;2023-02-01T06:07:16;5.13;;;4.33;;
54460;SDS011;40371;49.414;11.010;2023-02-01T06:09:42;4.07;;;3.67;;
54460;SDS011;40371;49.414;11.010;2023-02-01T06:12:08;4.20;;;3.80;;
54460;SDS011;40371;49.414;11.010;2023-02-01T06:14:33;4.10;;;3.80;;
54460;SDS011;40371;49.414;11.010;2023-02-01T06:16:59;4.07;;;3.77;;
54460;SDS011;40371;49.414;11.010;2023-02-01T06:19:25;4.40;;;4.10;;
54460;SDS011;40371;49.414;11.010;2023-02-01T06:21:51;3.80;;;3.50;;
54460;SDS011;40371;49.414;11.010;2023-02-01T06:24:16;3.80;;;3.50;;
54460;SDS011;40371;49.414;11.010;2023-02-01T06:26:42;3.73;;;3.37;;
54460;SDS011;40371;49.414;11.010;2023-02-01T06:29:11;2.90;;;2.70;;
54460;SDS011;40371;49.414;11.010;2023-02-01T06:31:37;3.63;;;3.00;;
54460;SDS011;40371;49.414;11.010;2023-02-01T06:34:02;3.20;;;3.00;;
54460;SDS011;40371;49.414;11.010;2023-02-01T06:36:28;2.93;;;2.73;;
54460;SDS011;40371;49.414;11.010;2023-02-01T06:38:57;2.40;;;2.30;;
54460;SDS011;40371;49.414;11.010;2023-02-01T06:41:24;2.83;;;2.63;;
54460;SDS011;40371;49.414;11.010;2023-02-01T06:43:50;2.40;;;2.30;;
54460;SDS011;40371;49.414;11.010;2023-02-01T06:46:16;2.27;;;2.07;;
54460;SDS011;40371;49.414;11.010;2023-02-01T06:48:42;2.30;;;2.20;;
54460;SDS011;40371;49.414;11.010;2023-02-01T06:51:21;2.50;;;2.40;;
54460;SDS011;40371;49.414;11.010;2023-02-01T06:53:47;2.30;;;2.10;;
54460;SDS011;40371;49.414;11.010;2023-02-01T06:56:13;2.07;;;1.97;;
54460;SDS011;40371;49.414;11.010;2023-02-01T06:58:39;2.10;;;2.00;;
54460;SDS011;40371;49.414;11.010;2023-02-01T07:01:05;2.33;;;2.13;;
54460;SDS011;40371;49.414;11.010;2023-02-01T07:03:31;2.20;;;2.00;;
54460;SDS011;40371;49.414;11.010;2023-02-01T07:05:57;3.07;;;2.20;;
54460;SDS011;40371;49.414;11.010;2023-02-01T07:08:29;2.07;;;1.97;;
54460;SDS011;40371;49.414;11.010;2023-02-01T07:10:56;2.10;;;2.00;;
54460;SDS011;40371;49.414;11.010;2023-02-01T07:13:22;2.67;;;2.27;;
54460;SDS011;40371;49.414;11.010;2023-02-01T07:15:47;2.40;;;2.20;;
54460;SDS011;40371;49.414;11.010;2023-02-01T07:18:14;2.43;;;2.33;;
54460;SDS011;40371;49.414;11.010;2023-02-01T07:20:40;2.67;;;2.47;;
54460;SDS011;40371;49.414;11.010;2023-02-01T07:23:07;7.87;;;5.03;;
54460;SDS011;40371;49.414;11.010;2023-02-01T07:25:35;2.70;;;2.50;;
54460;SDS011;40371;49.414;11.010;2023-02-01T07:28:00;2.80;;;2.60;;
54460;SDS011;40371;49.414;11.010;2023-02-01T07:30:26;3.83;;;2.87;;
54460;SDS011;40371;49.414;11.010;2023-02-01T07:32:51;3.90;;;2.80;;
54460;SDS011;40371;49.414;11.010;2023-02-01T07:35:17;5.00;;;3.00;;
54460;SDS011;40371;49.414;11.010;2023-02-01T07:37:42;3.03;;;2.70;;
54460;SDS011;40371;49.414;11.010;2023-02-01T07:40:08;2.77;;;2.53;;
54460;SDS011;40371;49.414;11.010;2023-02-01T07:42:34;3.27;;;2.97;;
54460;SDS011;40371;49.414;11.010;2023-02-01T07:45:00;3.37;;;2.63;;
54460;SDS011;40371;49.414;11.010;2023-02-01T07:47:27;3.40;;;2.50;;
54460;SDS011;40371;49.414;11.010;2023-02-01T07:49:53;4.13;;;2.40;;
54460;SDS011;40371;49.414;11.010;2023-02-01T07:52:18;2.80;;;2.60;;
54460;SDS011;40371;49.414;11.010;2023-02-01T07:54:44;2.53;;;2.23;;
54460;SDS011;40371;49.414;11.010;2023-02-01T07:57:09;1.97;;;1.87;;
54460;SDS011;40371;49.414;11.010;2023-02-01T07:59:36;2.90;;;2.30;;
54460;SDS011;40371;49.414;11.010;2023-02-01T08:02:25;4.13;;;1.90;;
54460;SDS011;40371;49.414;11.010;2023-02-01T08:04:51;3.03;;;2.37;;
54460;SDS011;40371;49.414;11.010;2023-02-01T08:07:16;3.07;;;2.33;;
54460;SDS011;40371;49.414;11.010;2023-02-01T08:09:42;4.97;;;2.20;;
54460;SDS011;40371;49.414;11.010;2023-02-01T08:12:07;6.63;;;2.00;;
54460;SDS011;40371;49.414;11.010;2023-02-01T08:14:33;2.10;;;1.63;;
54460;SDS011;40371;49.414;11.010;2023-02-01T08:16:58;2.77;;;2.10;;
54460;SDS011;40371;49.414;11.010;2023-02-01T08:19:24;2.63;;;1.80;;
54460;SDS011;40371;49.414;11.010;2023-02-01T08:21:49;1.73;;;1.63;;
54460;SDS011;40371;49.414;11.010;2023-02-01T08:24:15;1.70;;;1.60;;
54460;SDS011;40371;49.414;11.010;2023-02-01T08:26:41;3.23;;;1.80;;
54460;SDS011;40371;49.414;11.010;2023-02-01T08:29:08;2.23;;;1.80;;
54460;SDS011;40371;49.414;11.010;2023-02-01T08:31:36;1.97;;;1.50;;
54460;SDS011;40371;49.414;11.010;2023-02-01T08:34:05;3.70;;;1.83;;
54460;SDS011;40371;49.414;11.010;2023-02-01T08:36:33;1.90;;;1.30;;
54460;SDS011;40371;49.414;11.010;2023-02-01T08:38:59;3.00;;;1.43;;
54460;SDS011;40371;49.414;11.010;2023-02-01T08:41:27;2.63;;;1.57;;
54460;SDS011;40371;49.414;11.010;2023-02-01T08:43:54;2.43;;;1.70;;
54460;SDS011;40371;49.414;11.010;2023-02-01T08:46:20;2.13;;;1.93;;
54460;SDS011;40371;49.414;11.010;2023-02-01T08:48:47;2.53;;;1.83;;
54460;SDS011;40371;49.414;11.010;2023-02-01T08:51:14;4.50;;;2.07;;
54460;SDS011;40371;49.414;11.010;2023-02-01T08:53:42;4.90;;;1.90;;
54460;SDS011;40371;49.414;11.010;2023-02-01T08:56:12;2.67;;;2.00;;
54460;SDS011;40371;49.414;11.010;2023-02-01T08:58:39;4.17;;;2.67;;
54460;SDS011;40371;49.414;11.010;2023-02-01T09:01:05;4.23;;;2.60;;
54460;SDS011;40371;49.414;11.010;2023-02-01T09:03:32;5.13;;;2.30;;
54460;SDS011;40371;49.414;11.010;2023-02-01T09:06:02;4.27;;;2.47;;
54460;SDS011;40371;49.414;11.010;2023-02-01T09:08:28;4.80;;;3.43;;
54460;SDS011;40371;49.414;11.010;2023-02-01T09:10:58;5.13;;;2.93;;
54460;SDS011;40371;49.414;11.010;2023-02-01T09:13:27;3.80;;;3.00;;
54460;SDS011;40371;49.414;11.010;2023-02-01T09:15:53;3.73;;;2.70;;
54460;SDS011;40371;49.414;11.010;2023-02-01T09:18:19;2.37;;;2.17;;
54460;SDS011;40371;49.414;11.010;2023-02-01T09:20:44;3.17;;;2.50;;
54460;SDS011;40371;49.414;11.010;2023-02-01T09:23:10;4.13;;;2.67;;
54460;SDS011;40371;49.414;11.010;2023-02-01T09:25:39;4.57;;;2.80;;
54460;SDS011;40371;49.414;11.010;2023-02-01T09:28:05;3.47;;;3.13;;
54460;SDS011;40371;49.414;11.010;2023-02-01T09:30:31;3.10;;;1.80;;
54460;SDS011;40371;49.414;11.010;2023-02-01T09:32:58;1.70;;;1.60;;
54460;SDS011;40371;49.414;11.010;2023-02-01T09:35:24;3.90;;;2.00;;
54460;SDS011;40371;49.414;11.010;2023-02-01T09:37:49;1.70;;;1.60;;
54460;SDS011;40371;49.414;11.010;2023-02-01T09:40:17;4.70;;;1.87;;
54460;SDS011;40371;49.414;11.010;2023-02-01T09:48:29;15.87;;;11.70;;
54460;SDS011;40371;49.414;11.010;2023-02-01T09:50:58;12.90;;;8.93;;
54460;SDS011;40371;49.414;11.010;2023-02-01T09:53:29;8.07;;;5.17;;
54460;SDS011;40371;49.414;11.010;2023-02-01T10:01:47;3.87;;;2.00;;
54460;SDS011;40371;49.414;11.010;2023-02-01T10:04:13;5.93;;;2.13;;
54460;SDS011;40371;49.414;11.010;2023-02-01T10:09:16;3.40;;;2.40;;
54460;SDS011;40371;49.414;11.010;2023-02-01T10:12:28;7.83;;;5.23;;
54460;SDS011;40371;49.414;11.010;2023-02-01T10:18:15;7.50;;;2.70;;
54460;SDS011;40371;49.414;11.010;2023-02-01T10:21:17;5.37;;;2.47;;
54460;SDS011;40371;49.414;11.010;2023-02-01T10:24:12;4.33;;;2.43;;
54460;SDS011;40371;49.414;11.010;2023-02-01T10:27:29;4.87;;;2.70;;
54460;SDS011;40371;49.414;11.010;2023-02-01T10:29:45;7.63;;;2.93;;
54460;SDS011;40371;49.414;11.010;2023-02-01T10:32:18;6.23;;;2.83;;
54460;SDS011;40371;49.414;11.010;2023-02-01T10:34:48;6.63;;;3.17;;
54460;SDS011;40371;49.414;11.010;2023-02-01T10:40:13;8.40;;;2.93;;
54460;SDS011;40371;49.414;11.010;2023-02-01T10:42:43;7.73;;;3.07;;
54460;SDS011;40371;49.414;11.010;2023-02-01T10:45:17;5.50;;;3.17;;
54460;SDS011;40371;49.414;11.010;2023-02-01T10:47:46;4.20;;;2.60;;
54460;SDS011;40371;49.414;11.010;2023-02-01T10:50:32;5.23;;;2.80;;
54460;SDS011;40371;49.414;11.010;2023-02-01T10:53:14;4.37;;;2.60;;
54460;SDS011;40371;49.414;11.010;2023-02-01T11:00:46;5.23;;;2.60;;
54460;SDS011;40371;49.414;11.010;2023-02-01T11:06:51;6.00;;;2.50;;
54460;SDS011;40371;49.414;11.010;2023-02-01T11:09:38;6.53;;;3.50;;
54460;SDS011;40371;49.414;11.010;2023-02-01T11:12:07;7.43;;;2.43;;
54460;SDS011;40371;49.414;11.010;2023-02-01T11:14:48;6.87;;;2.10;;
54460;SDS011;40371;49.414;11.010;2023-02-01T11:19:43;7.83;;;2.80;;
54460;SDS011;40371;49.414;11.010;2023-02-01T11:22:10;8.40;;;2.27;;
54460;SDS011;40371;49.414;11.010;2023-02-01T11:24:38;8.00;;;2.77;;
54460;SDS011;40371;49.414;11.010;2023-02-01T11:27:14;8.53;;;3.03;;
54460;SDS011;40371;49.414;11.010;2023-02-01T11:29:43;7.90;;;2.77;;
54460;SDS011;40371;49.414;11.010;2023-02-01T11:32:16;8.83;;;3.93;;
54460;SDS011;40371;49.414;11.010;2023-02-01T11:34:46;5.63;;;2.37;;
54460;SDS011;40371;49.414;11.010;2023-02-01T11:37:18;4.77;;;2.20;;
54460;SDS011;40371;49.414;11.010;2023-02-01T11:39:56;5.30;;;2.30;;
54460;SDS011;40371;49.414;11.010;2023-02-01T11:42:24;4.60;;;2.20;;
54460;SDS011;40371;49.414;11.010;2023-02-01T11:44:50;10.63;;;3.00;;
54460;SDS011;40371;49.414;11.010;2023-02-01T11:47:39;7.13;;;2.40;;
54460;SDS011;40371;49.414;11.010;2023-02-01T11:50:12;17.37;;;8.63;;
54460;SDS011;40371;49.414;11.010;2023-02-01T11:52:48;16.73;;;5.57;;
54460;SDS011;40371;49.414;11.010;2023-02-01T12:00:39;8.90;;;3.37;;
54460;SDS011;40371;49.414;11.010;2023-02-01T12:06:43;6.13;;;2.27;;
54460;SDS011;40371;49.414;11.010;2023-02-01T12:23:46;8.33;;;2.03;;
54460;SDS011;40371;49.414;11.010;2023-02-01T12:26:48;6.33;;;2.67;;
54460;SDS011;40371;49.414;11.010;2023-02-01T12:29:43;6.13;;;2.47;;
54460;SDS011;40371;49.414;11.010;2023-02-01T12:37:57;5.93;;;2.30;;
54460;SDS011;40371;49.414;11.010;2023-02-01T12:40:43;5.53;;;1.93;;
54460;SDS011;40371;49.414;11.010;2023-02-01T12:46:01;8.13;;;2.57;;
54460;SDS011;40371;49.414;11.010;2023-02-01T12:51:14;7.37;;;2.53;;
54460;SDS011;40371;49.414;11.010;2023-02-01T12:54:04;8.17;;;2.60;;
54460;SDS011;40371;49.414;11.010;2023-02-01T12:56:49;6.90;;;2.67;;
54460;SDS011;40371;49.414;11.010;2023-02-01T12:59:39;5.70;;;2.10;;
54460;SDS011;40371;49.414;11.010;2023-02-01T13:02:25;7.40;;;2.30;;
54460;SDS011;40371;49.414;11.010;2023-02-01T13:06:02;9.23;;;3.27;;
54460;SDS011;40371;49.414;11.010;2023-02-01T13:08:12;6.73;;;2.60;;
54460;SDS011;40371;49.414;11.010;2023-02-01T13:10:59;7.53;;;2.70;;
54460;SDS011;40371;49.414;11.010;2023-02-01T13:13:32;7.53;;;2.73;;
54460;SDS011;40371;49.414;11.010;2023-02-01T13:16:14;5.47;;;2.77;;
54460;SDS011;40371;49.414;11.010;2023-02-01T13:18:56;8.17;;;3.00;;
54460;SDS011;40371;49.414;11.010;2023-02-01T13:21:30;7.17;;;2.90;;
54460;SDS011;40371;49.414;11.010;2023-02-01T13:23:59;5.83;;;3.10;;
54460;SDS011;40371;49.414;11.010;2023-02-01T13:26:24;11.20;;;4.53;;
54460;SDS011;40371;49.414;11.010;2023-02-01T13:28:51;11.07;;;3.17;;
54460;SDS011;40371;49.414;11.010;2023-02-01T13:36:55;5.97;;;2.23;;
54460;SDS011;40371;49.414;11.010;2023-02-01T13:39:45;9.57;;;2.53;;
54460;SDS011;40371;49.414;11.010;2023-02-01T13:42:16;6.57;;;2.60;;
54460;SDS011;40371;49.414;11.010;2023-02-01T13:44:50;7.73;;;2.63;;
54460;SDS011;40371;49.414;11.010;2023-02-01T13:47:28;6.23;;;2.37;;
54460;SDS011;40371;49.414;11.010;2023-02-01T13:50:02;4.97;;;2.30;;
54460;SDS011;40371;49.414;11.010;2023-02-01T13:52:42;7.47;;;2.67;;
54460;SDS011;40371;49.414;11.010;2023-02-01T13:57:39;7.93;;;2.47;;
54460;SDS011;40371;49.414;11.010;2023-02-01T14:00:26;5.23;;;2.37;;
54460;SDS011;40371;49.414;11.010;2023-02-01T14:03:02;6.13;;;2.60;;
54460;SDS011;40371;49.414;11.010;2023-02-01T14:13:28;6.07;;;2.63;;
54460;SDS011;40371;49.414;11.010;2023-02-01T14:23:40;9.03;;;3.00;;
54460;SDS011;40371;49.414;11.010;2023-02-01T14:26:26;6.37;;;2.53;;
54460;SDS011;40371;49.414;11.010;2023-02-01T14:28:57;5.40;;;2.30;;
54460;SDS011;40371;49.414;11.010;2023-02-01T14:34:31;11.20;;;3.53;;
54460;SDS011;40371;49.414;11.010;2023-02-01T14:47:53;10.60;;;3.93;;
54460;SDS011;40371;49.414;11.010;2023-02-01T15:04:00;8.57;;;3.50;;
54460;SDS011;40371;49.414;11.010;2023-02-01T15:11:59;6.33;;;3.03;;
54460;SDS011;40371;49.414;11.010;2023-02-01T15:20:15;11.70;;;3.73;;
54460;SDS011;40371;49.414;11.010;2023-02-01T15:22:40;9.00;;;2.63;;
54460;SDS011;40371;49.414;11.010;2023-02-01T15:25:26;5.50;;;2.50;;
54460;SDS011;40371;49.414;11.010;2023-02-01T15:27:57;7.03;;;2.70;;
54460;SDS011;40371;49.414;11.010;2023-02-01T15:30:27;9.27;;;2.90;;
54460;SDS011;40371;49.414;11.010;2023-02-01T15:35:48;10.90;;;2.63;;
54460;SDS011;40371;49.414;11.010;2023-02-01T15:43:30;6.70;;;2.80;;
54460;SDS011;40371;49.414;11.010;2023-02-01T15:46:43;9.50;;;2.20;;
54460;SDS011;40371;49.414;11.010;2023-02-01T15:49:19;9.63;;;2.83;;
54460;SDS011;40371;49.414;11.010;2023-02-01T15:51:48;6.67;;;2.27;;
54460;SDS011;40371;49.414;11.010;2023-02-01T15:54:16;5.90;;;2.83;;
54460;SDS011;40371;49.414;11.010;2023-02-01T15:56:56;8.60;;;2.80;;
54460;SDS011;40371;49.414;11.010;2023-02-01T15:59:25;7.67;;;2.57;;
54460;SDS011;40371;49.414;11.010;2023-02-01T16:02:01;11.10;;;2.60;;
54460;SDS011;40371;49.414;11.010;2023-02-01T16:04:28;7.57;;;2.87;;
54460;SDS011;40371;49.414;11.010;2023-02-01T16:06:58;7.53;;;2.50;;
54460;SDS011;40371;49.414;11.010;2023-02-01T16:09:36;7.47;;;2.37;;
54460;SDS011;40371;49.414;11.010;2023-02-01T16:12:17;9.30;;;3.03;;
54460;SDS011;40371;49.414;11.010;2023-02-01T16:14:51;5.40;;;2.47;;
54460;SDS011;40371;49.414;11.010;2023-02-01T16:17:17;8.97;;;3.23;;
54460;SDS011;40371;49.414;11.010;2023-02-01T16:19:42;5.53;;;2.10;;
54460;SDS011;40371;49.414;11.010;2023-02-01T16:22:08;7.77;;;2.30;;
54460;SDS011;40371;49.414;11.010;2023-02-01T16:24:33;10.03;;;2.80;;
54460;SDS011;40371;49.414;11.010;2023-02-01T16:26:59;6.40;;;2.60;;
54460;SDS011;40371;49.414;11.010;2023-02-01T16:29:25;5.70;;;2.30;;
54460;SDS011;40371;49.414;11.010;2023-02-01T16:31:50;7.77;;;2.37;;
54460;SDS011;40371;49.414;11.010;2023-02-01T16:34:17;8.30;;;2.90;;
54460;SDS011;40371;49.414;11.010;2023-02-01T16:36:43;8.20;;;2.47;;
54460;SDS011;40371;49.414;11.010;2023-02-01T16:39:16;6.77;;;2.30;;
54460;SDS011;40371;49.414;11.010;2023-02-01T16:41:43;5.53;;;2.10;;
54460;SDS011;40371;49.414;11.010;2023-02-01T16:44:10;4.63;;;2.40;;
54460;SDS011;40371;49.414;11.010;2023-02-01T16:46:38;6.97;;;2.70;;
54460;SDS011;40371;49.414;11.010;2023-02-01T16:49:05;5.40;;;2.43;;
54460;SDS011;40371;49.414;11.010;2023-02-01T16:51:47;6.53;;;2.40;;
54460;SDS011;40371;49.414;11.010;2023-02-01T16:54:18;6.13;;;2.20;;
54460;SDS011;40371;49.414;11.010;2023-02-01T16:56:45;6.40;;;2.20;;
54460;SDS011;40371;49.414;11.010;2023-02-01T16:59:11;9.33;;;2.83;;
54460;SDS011;40371;49.414;11.010;2023-02-01T17:01:38;5.00;;;2.87;;
54460;SDS011;40371;49.414;11.010;2023-02-01T17:04:05;8.07;;;2.27;;
54460;SDS011;40371;49.414;11.010;2023-02-01T17:06:31;5.90;;;2.60;;
54460;SDS011;40371;49.414;11.010;2023-02-01T17:08:57;9.73;;;3.30;;
54460;SDS011;40371;49.414;11.010;2023-02-01T17:11:24;8.70;;;2.90;;
54460;SDS011;40371;49.414;11.010;2023-02-01T17:13:51;7.40;;;2.70;;
54460;SDS011;40371;49.414;11.010;2023-02-01T17:18:42;10.33;;;2.83;;
54460;SDS011;40371;49.414;11.010;2023-02-01T17:21:08;7.30;;;2.37;;
54460;SDS011;40371;49.414;11.010;2023-02-01T17:23:35;7.27;;;2.87;;
54460;SDS011;40371;49.414;11.010;2023-02-01T17:26:01;7.30;;;2.60;;
54460;SDS011;40371;49.414;11.010;2023-02-01T17:28:27;8.83;;;2.83;;
54460;SDS011;40371;49.414;11.010;2023-02-01T17:30:53;7.27;;;2.43;;
54460;SDS011;40371;49.414;11.010;2023-02-01T17:36:00;12.47;;;2.87;;
54460;SDS011;40371;49.414;11.010;2023-02-01T17:38:27;3.87;;;2.30;;
54460;SDS011;40371;49.414;11.010;2023-02-01T17:40:52;9.67;;;2.90;;